createdAt,value
2018-07-16T00:02:00.318Z,62
2018-07-16T00:07:29.983Z,63
2018-07-16T00:13:00.346Z,63
2018-07-16T00:18:35.211Z,63
2018-07-16T00:23:59.408Z,63
2018-07-16T00:29:29.580Z,63
2018-07-16T00:35:04.047Z,63
2018-07-16T00:40:28.564Z,64
2018-07-16T00:45:58.929Z,64
2018-07-16T00:51:33.371Z,64
2018-07-16T00:56:58.982Z,64
2018-07-16T01:02:28.122Z,64
2018-07-16T01:07:58.781Z,65
2018-07-16T01:13:27.881Z,65
2018-07-16T01:18:57.259Z,65
2018-07-16T01:24:27.925Z,65
2018-07-16T01:29:57.045Z,65
2018-07-16T01:35:27.439Z,65
2018-07-16T01:40:56.805Z,65
2018-07-16T01:46:27.072Z,65
2018-07-16T01:51:56.432Z,65
2018-07-16T01:57:27.023Z,65
2018-07-16T02:03:01.024Z,65
2018-07-16T02:08:26.337Z,65
2018-07-16T02:14:00.608Z,66
2018-07-16T02:19:25.997Z,66
2018-07-16T02:24:56.674Z,66
2018-07-16T02:30:25.794Z,66
2018-07-16T02:35:54.753Z,66
2018-07-16T02:41:25.065Z,66
2018-07-16T02:47:00.419Z,66
2018-07-16T02:52:24.611Z,66
2018-07-16T02:57:54.059Z,66
2018-07-16T03:03:28.148Z,66
2018-07-16T03:08:52.488Z,67
2018-07-16T03:14:21.668Z,67
2018-07-16T03:19:55.885Z,67
2018-07-16T03:25:21.098Z,67
2018-07-16T03:25:21.708Z,67
2018-07-16T03:30:51.407Z,67
2018-07-16T03:36:25.588Z,67
2018-07-16T03:41:51.083Z,67
2018-07-16T03:47:26.106Z,67
2018-07-16T03:52:51.448Z,67
2018-07-16T03:58:20.565Z,67
2018-07-16T04:03:50.887Z,67
2018-07-16T04:09:20.383Z,67
2018-07-16T04:14:54.560Z,67
2018-07-16T04:20:19.665Z,67
2018-07-16T04:25:48.915Z,67
2018-07-16T04:31:18.247Z,67
2018-07-16T04:31:18.679Z,67
2018-07-16T04:36:47.720Z,66
2018-07-16T04:36:51.495Z,66
2018-07-16T04:42:16.961Z,66
2018-07-16T04:47:46.146Z,66
2018-07-16T04:53:16.749Z,67
2018-07-16T04:58:51.004Z,67
2018-07-16T05:04:15.118Z,67
2018-07-16T05:09:44.711Z,67
2018-07-16T05:15:15.159Z,67
2018-07-16T05:20:45.308Z,67
2018-07-16T05:21:16.703Z,67
2018-07-16T05:26:14.564Z,68
2018-07-16T05:31:45.020Z,68
2018-07-16T05:37:20.372Z,68
2018-07-16T05:42:50.012Z,68
2018-07-16T05:48:19.428Z,68
2018-07-16T05:53:43.510Z,68
2018-07-16T05:59:19.577Z,68
2018-07-16T06:04:44.544Z,68
2018-07-16T06:10:14.172Z,68
2018-07-16T06:15:43.868Z,68
2018-07-16T06:21:13.542Z,68
2018-07-16T06:26:43.018Z,68
2018-07-16T06:32:12.708Z,68
2018-07-16T06:37:43.711Z,68
2018-07-16T06:43:18.214Z,68
2018-07-16T06:48:43.985Z,67
2018-07-16T06:54:14.500Z,67
2018-07-16T06:59:44.657Z,67
2018-07-16T07:05:15.077Z,67
2018-07-16T07:10:45.598Z,67
2018-07-16T07:16:16.071Z,66
2018-07-16T07:21:46.673Z,66
2018-07-16T07:27:16.551Z,66
2018-07-16T07:32:47.354Z,65
2018-07-16T07:38:17.479Z,65
2018-07-16T07:43:47.390Z,65
2018-07-16T07:49:22.467Z,65
2018-07-16T07:54:53.736Z,64
2018-07-16T08:00:19.146Z,64
2018-07-16T08:05:49.079Z,64
2018-07-16T08:11:20.223Z,63
2018-07-16T08:16:50.339Z,63
2018-07-16T08:22:26.196Z,62
2018-07-16T08:27:52.408Z,62
2018-07-16T08:33:22.521Z,62
2018-07-16T08:38:52.358Z,61
2018-07-16T08:44:23.404Z,61
2018-07-16T08:49:54.914Z,60
2018-07-16T08:55:25.810Z,60
2018-07-16T09:00:57.143Z,60
2018-07-16T09:06:28.109Z,60
2018-07-16T09:11:58.238Z,59
2018-07-16T09:17:35.535Z,59
2018-07-16T09:23:00.889Z,58
2018-07-16T09:28:31.762Z,58
2018-07-16T09:34:03.150Z,57
2018-07-16T09:39:38.265Z,57
2018-07-16T09:45:03.771Z,56
2018-07-16T09:50:35.111Z,56
2018-07-16T09:56:05.158Z,56
2018-07-16T10:01:36.694Z,55
2018-07-16T10:07:06.775Z,54
2018-07-16T10:12:43.227Z,54
2018-07-16T10:18:07.633Z,54
2018-07-16T10:23:43.107Z,54
2018-07-16T10:29:08.461Z,53
2018-07-16T10:34:43.896Z,53
2018-07-16T10:40:10.540Z,53
2018-07-16T10:45:41.687Z,52
2018-07-16T10:51:12.002Z,51
2018-07-16T10:56:42.439Z,51
2018-07-16T11:02:14.664Z,50
2018-07-16T11:07:45.600Z,50
2018-07-16T11:07:46.075Z,50
2018-07-16T11:13:16.229Z,50
2018-07-16T11:18:47.259Z,50
2018-07-16T11:24:17.026Z,50
2018-07-16T11:29:53.599Z,49
2018-07-16T11:35:25.430Z,49
2018-07-16T11:40:54.011Z,48
2018-07-16T11:46:23.913Z,48
2018-07-16T11:51:53.961Z,48
2018-07-16T11:57:28.432Z,47
2018-07-16T12:02:57.030Z,47
2018-07-16T12:08:31.104Z,47
2018-07-16T12:13:56.913Z,46
2018-07-16T12:19:26.809Z,46
2018-07-16T12:24:58.908Z,46
2018-07-16T12:30:29.617Z,46
2018-07-16T12:35:59.663Z,45
2018-07-16T12:41:37.107Z,45
2018-07-16T12:47:03.333Z,44
2018-07-16T12:52:35.585Z,44
2018-07-16T12:58:11.090Z,45
2018-07-16T13:03:36.670Z,44
2018-07-16T13:09:09.770Z,43
2018-07-16T13:14:42.383Z,43
2018-07-16T13:20:12.247Z,43
2018-07-16T13:25:48.701Z,42
2018-07-16T13:31:13.337Z,42
2018-07-16T13:36:48.952Z,43
2018-07-16T13:42:16.264Z,43
2018-07-16T13:47:46.583Z,42
2018-07-16T13:53:18.472Z,42
2018-07-16T13:58:54.504Z,42
2018-07-16T14:04:21.317Z,41
2018-07-16T14:09:50.913Z,41
2018-07-16T14:15:21.567Z,41
2018-07-16T14:20:53.606Z,41
2018-07-16T14:26:30.058Z,41
2018-07-16T14:32:01.776Z,42
2018-07-16T14:37:33.453Z,42
2018-07-16T14:43:00.246Z,41
2018-07-16T14:48:31.806Z,41
2018-07-16T14:54:02.560Z,41
2018-07-16T14:59:33.245Z,41
2018-07-16T15:05:03.916Z,41
2018-07-16T15:10:34.709Z,41
2018-07-16T15:16:10.340Z,41
2018-07-16T15:21:36.419Z,40
2018-07-16T15:27:11.879Z,40
2018-07-16T15:32:38.473Z,40
2018-07-16T15:38:14.191Z,40
2018-07-16T15:43:40.934Z,41
2018-07-16T15:49:11.561Z,41
2018-07-16T15:54:42.560Z,41
2018-07-16T16:00:17.932Z,41
2018-07-16T16:05:44.088Z,41
2018-07-16T16:05:48.575Z,41
2018-07-16T16:11:14.472Z,41
2018-07-16T16:16:50.931Z,41
2018-07-16T16:22:17.609Z,41
2018-07-16T16:27:48.437Z,41
2018-07-16T16:33:18.858Z,41
2018-07-16T16:38:50.766Z,41
2018-07-16T16:44:26.209Z,40
2018-07-16T16:49:52.885Z,40
2018-07-16T16:55:23.586Z,40
2018-07-16T17:00:54.162Z,40
2018-07-16T17:06:26.331Z,39
2018-07-16T17:11:56.627Z,39
2018-07-16T17:17:33.370Z,39
2018-07-16T17:22:59.317Z,39
2018-07-16T17:28:29.895Z,39
2018-07-16T17:34:00.406Z,39
2018-07-16T17:39:31.811Z,39
2018-07-16T17:45:02.698Z,39
2018-07-16T17:50:39.391Z,40
2018-07-16T17:56:05.280Z,40
2018-07-16T18:01:35.552Z,40
2018-07-16T18:07:11.062Z,40
2018-07-16T18:12:36.933Z,40
2018-07-16T18:18:07.124Z,41
2018-07-16T18:23:38.120Z,41
2018-07-16T18:29:09.163Z,42
2018-07-16T18:34:39.649Z,42
2018-07-16T18:40:11.083Z,43
2018-07-16T18:45:42.157Z,43
2018-07-16T18:51:12.001Z,43
2018-07-16T18:56:42.687Z,44
2018-07-16T18:56:43.648Z,44
2018-07-16T19:02:12.850Z,44
2018-07-16T19:07:44.536Z,45
2018-07-16T19:13:15.688Z,45
2018-07-16T19:18:51.059Z,45
2018-07-16T19:24:16.687Z,46
2018-07-16T19:29:46.754Z,47
2018-07-16T19:35:21.882Z,47
2018-07-16T19:40:47.187Z,48
2018-07-16T19:40:48.150Z,48
2018-07-16T19:46:23.478Z,48
2018-07-16T19:51:48.714Z,48
2018-07-16T19:57:18.967Z,49
2018-07-16T20:02:50.374Z,49
2018-07-16T20:02:50.895Z,49
2018-07-16T20:08:21.636Z,50
2018-07-16T20:13:57.914Z,50
2018-07-16T20:19:28.781Z,50
2018-07-16T20:24:59.975Z,51
2018-07-16T20:30:25.436Z,51
2018-07-16T20:35:55.231Z,51
2018-07-16T20:41:26.770Z,52
2018-07-16T20:46:57.447Z,52
2018-07-16T20:52:27.699Z,52
2018-07-16T20:58:03.525Z,52
2018-07-16T21:03:28.570Z,53
2018-07-16T21:08:58.698Z,53
2018-07-16T21:14:34.956Z,53
2018-07-16T21:20:00.003Z,54
2018-07-16T21:25:29.605Z,54
2018-07-16T21:30:59.961Z,54
2018-07-16T21:36:29.911Z,54
2018-07-16T21:42:04.964Z,55
2018-07-16T21:47:30.695Z,55
2018-07-16T21:53:01.523Z,55
2018-07-16T21:58:32.443Z,55
2018-07-16T22:04:03.395Z,56
2018-07-16T22:04:03.957Z,56
2018-07-16T22:09:33.330Z,56
2018-07-16T22:15:04.360Z,56
2018-07-16T22:20:40.211Z,56
2018-07-16T22:26:10.110Z,57
2018-07-16T22:31:35.337Z,57
2018-07-16T22:31:35.644Z,57
2018-07-16T22:37:05.918Z,57
2018-07-16T22:42:35.737Z,57
2018-07-16T22:48:10.679Z,57
2018-07-16T22:53:36.492Z,57
2018-07-16T22:59:07.441Z,57
2018-07-16T23:04:37.447Z,58
2018-07-16T23:10:08.480Z,58
2018-07-16T23:15:39.059Z,58
2018-07-16T23:21:08.977Z,58
2018-07-16T23:26:38.938Z,59
2018-07-16T23:32:09.729Z,59
2018-07-16T23:37:40.825Z,59
2018-07-16T23:43:10.599Z,59
2018-07-16T23:48:40.446Z,59
2018-07-16T23:54:10.230Z,60
2018-07-16T23:59:39.915Z,60
